Terminal Aerodrome Forecast
Issued by NWS Duluth, MN

Home | Current Version | Previous Version | Text Only | Print | Product List | Glossary On
Versions: 1 2 3 4 5 6 7 8 9 10 11 12 13 14 15 16 17 18
000
FTUS43 KDLH 282341
TAFINL
TAF
KINL 282341Z 2900/2924 09008KT P6SM -RA BKN009 OVC014
      TEMPO 2900/2903 3SM -RA BR OVC009
     FM290300 03005KT 3SM -RA BR OVC012
     FM290600 VRB03KT P6SM -SHRA OVC025
     FM291000 35004KT P6SM VCSH BKN040
     FM291500 36004KT P6SM BKN040=

USA.gov is the U.S. government's official web portal to all federal, state and local government web resources and services.